Glasgow International Airport – EGPF

METAR:

EGPF 290750Z AUTO VRB01KT 0250 R23/0500N FG VV/// 03/03 Q1019


TAF:

TAF AMD EGPF 290708Z 2907/3006 09002KT 6000 FEW004 TEMPO 2907/2910 4000 BR MIFG BKN004 PROB30 2907/2910 0300 FG VV/// PROB40 2912/2915 4000 BR BKN004 BECMG 2915/2918 3000 BR MIFG PROB40 2919/3006 0300 FG FZFG VV///